createdAt,value
2018-12-15T14:28:29.803Z,16.85
2018-12-15T14:29:44.309Z,16.77
2018-12-15T14:30:57.924Z,16.82
2018-12-15T14:32:11.203Z,16.32
2018-12-15T14:33:24.412Z,17.95
2018-12-15T14:34:48.698Z,19.07
2018-12-15T14:36:04.420Z,17.05
2018-12-15T14:37:17.404Z,17.37
2018-12-15T14:38:40.483Z,17.75
2018-12-15T14:39:55.999Z,18.55
2018-12-15T14:41:13.396Z,16.52
2018-12-15T14:42:29.812Z,18.50
2018-12-15T14:43:42.673Z,17.92
2018-12-15T14:44:55.042Z,18.45
2018-12-15T14:46:15.696Z,18.90
2018-12-15T14:47:31.890Z,19.67
2018-12-15T14:48:44.536Z,20.50
2018-12-15T14:49:58.359Z,19.87
2018-12-15T14:51:18.400Z,20.70
2018-12-15T14:52:34.123Z,21.73
2018-12-15T14:53:52.303Z,21.20
2018-12-15T14:55:06.105Z,21.93
2018-12-15T14:56:22.558Z,22.90
2018-12-15T14:57:40.701Z,23.27
2018-12-15T14:58:58.188Z,22.55
2018-12-15T15:00:17.429Z,24.80
2018-12-15T15:01:30.198Z,25.77
2018-12-15T15:02:45.905Z,24.90
2018-12-15T15:04:02.185Z,24.70
2018-12-15T15:05:14.910Z,24.43
2018-12-15T15:06:28.534Z,23.40
2018-12-15T15:07:41.761Z,23.62
2018-12-15T15:08:55.289Z,23.32
2018-12-15T15:10:08.550Z,24.85
2018-12-15T15:11:22.135Z,22.67
2018-12-15T15:12:39.868Z,23.87
2018-12-15T15:13:52.451Z,23.60
2018-12-15T15:15:06.788Z,22.95
2018-12-15T15:16:20.260Z,25.20
2018-12-15T15:17:39.298Z,24.43
2018-12-15T15:18:54.777Z,23.73
2018-12-15T15:20:09.730Z,24.25
2018-12-15T15:21:25.301Z,23.95
2018-12-15T15:22:41.053Z,25.20
2018-12-15T15:23:56.669Z,25.95
2018-12-15T15:25:11.868Z,24.87
2018-12-15T15:26:29.000Z,28.00
2018-12-15T15:27:46.537Z,25.75
2018-12-15T15:28:59.200Z,26.00
2018-12-15T15:30:14.860Z,26.82
2018-12-15T15:31:28.033Z,30.43
2018-12-15T15:32:43.589Z,34.75
2018-12-15T15:33:56.454Z,35.73
2018-12-15T15:35:10.708Z,34.35
2018-12-15T15:36:27.140Z,31.50
2018-12-15T15:37:42.942Z,31.55
2018-12-15T15:38:55.953Z,29.23
2018-12-15T15:40:09.044Z,26.25
2018-12-15T15:41:25.554Z,25.00
2018-12-15T15:42:39.532Z,22.98
2018-12-15T15:43:52.683Z,22.40
2018-12-15T15:45:10.492Z,22.35
2018-12-15T15:46:26.945Z,22.42
2018-12-15T15:47:42.757Z,21.95
2018-12-15T15:48:57.648Z,22.67
2018-12-15T15:50:08.419Z,23.27
2018-12-15T15:51:21.688Z,23.52
2018-12-15T15:52:34.400Z,23.90
2018-12-15T15:53:47.304Z,23.27
2018-12-15T15:55:00.467Z,22.80
2018-12-15T15:56:17.047Z,22.73
2018-12-15T15:57:33.095Z,23.65
2018-12-15T15:58:48.981Z,23.62
2018-12-15T16:00:20.418Z,24.72
2018-12-15T16:01:41.733Z,23.22
2018-12-15T16:02:59.431Z,23.35
2018-12-15T16:04:14.292Z,23.30
2018-12-15T16:05:34.168Z,22.75
2018-12-15T16:06:49.262Z,24.82
2018-12-15T16:08:08.361Z,24.87
2018-12-15T16:09:22.640Z,23.80
2018-12-15T16:10:54.230Z,23.22
2018-12-15T16:12:09.348Z,23.55
2018-12-15T16:13:23.000Z,22.30
2018-12-15T16:14:39.702Z,23.10
2018-12-15T16:15:54.135Z,22.95
2018-12-15T16:17:07.732Z,21.40
2018-12-15T16:18:25.393Z,22.73
2018-12-15T16:19:38.339Z,22.90
2018-12-15T16:20:52.114Z,23.55
2018-12-15T16:22:05.117Z,22.37
2018-12-15T16:23:19.235Z,21.15
2018-12-15T16:24:37.380Z,21.07
2018-12-15T16:25:50.904Z,21.35
2018-12-15T16:27:07.100Z,20.35
2018-12-15T16:28:21.401Z,20.65
2018-12-15T16:29:44.605Z,20.20
2018-12-15T16:31:03.738Z,19.37
2018-12-15T16:32:25.802Z,20.43
2018-12-15T16:33:44.562Z,20.00
2018-12-15T16:35:01.978Z,18.37
2018-12-15T16:36:26.708Z,18.62
2018-12-15T16:37:49.787Z,18.07
2018-12-15T16:39:10.681Z,18.23
2018-12-15T16:42:08.984Z,18.98
2018-12-15T16:43:26.621Z,19.23
2018-12-15T16:45:01.668Z,18.12
2018-12-15T16:46:17.013Z,19.23
2018-12-15T16:47:29.005Z,19.17
2018-12-15T16:48:53.488Z,19.05
2018-12-15T16:50:16.157Z,18.70
2018-12-15T16:51:35.787Z,19.27
2018-12-15T17:06:45.925Z,18.87
2018-12-15T17:08:03.478Z,15.78
2018-12-15T17:09:26.088Z,18.40
2018-12-15T17:11:03.346Z,16.85
2018-12-15T17:12:23.098Z,18.70
2018-12-15T17:13:39.746Z,19.35
2018-12-15T17:15:02.273Z,19.10
2018-12-15T17:16:19.113Z,17.02
2018-12-15T17:17:40.402Z,17.90
2018-12-15T17:18:55.133Z,18.45
2018-12-15T17:20:09.795Z,18.45
2018-12-15T17:21:33.129Z,17.75
2018-12-15T17:22:50.529Z,17.65
2018-12-15T17:24:07.631Z,17.02
2018-12-15T17:25:23.028Z,16.07
2018-12-15T17:26:39.503Z,16.12
2018-12-15T17:27:57.692Z,16.75
2018-12-15T17:29:19.855Z,15.78
2018-12-15T17:30:36.365Z,16.32
2018-12-15T17:31:58.782Z,16.23
2018-12-15T17:33:22.614Z,17.52
2018-12-15T17:34:41.899Z,16.67
2018-12-15T17:36:04.681Z,16.93
2018-12-15T17:37:24.962Z,17.05
2018-12-15T17:38:50.352Z,18.60
2018-12-15T17:40:15.569Z,18.98
2018-12-15T17:41:34.805Z,19.42
2018-12-15T17:42:48.560Z,24.15
2018-12-15T17:44:15.405Z,23.18
2018-12-15T17:45:33.420Z,22.90
2018-12-15T17:46:55.702Z,18.50
2018-12-15T17:48:13.798Z,17.42
2018-12-15T17:49:28.693Z,17.17
2018-12-15T17:50:43.453Z,18.07
2018-12-15T17:51:59.036Z,18.65
2018-12-15T17:53:12.139Z,17.35
2018-12-15T17:54:27.784Z,19.00
2018-12-15T17:55:47.705Z,17.92
2018-12-15T17:57:03.326Z,17.60
2018-12-15T17:58:23.562Z,18.75
2018-12-15T17:59:36.808Z,20.25
2018-12-15T18:00:58.096Z,17.98
2018-12-15T18:02:17.945Z,17.27
2018-12-15T18:03:31.200Z,16.87
2018-12-15T18:05:05.800Z,16.87
2018-12-15T18:06:22.236Z,18.37
2018-12-15T18:07:36.117Z,16.52
2018-12-15T18:18:40.104Z,16.85
2018-12-15T18:20:12.440Z,16.80
2018-12-15T18:21:28.144Z,16.65
2018-12-15T18:22:47.170Z,16.25
2018-12-15T18:24:01.059Z,17.45
2018-12-15T18:25:20.461Z,18.32
2018-12-15T18:26:39.842Z,18.27
2018-12-15T18:27:58.779Z,17.17
2018-12-15T18:29:21.250Z,17.32
2018-12-15T18:30:36.212Z,17.92
2018-12-15T18:50:52.463Z,17.52
2018-12-15T18:52:10.669Z,16.10
2018-12-15T18:53:31.876Z,15.83
2018-12-15T18:54:56.812Z,16.75
2018-12-15T18:56:30.672Z,15.70
2018-12-15T18:57:44.602Z,16.65
2018-12-15T18:59:05.218Z,15.78
2018-12-15T19:00:24.063Z,16.17
2018-12-15T19:11:30.975Z,15.90
2018-12-15T19:12:46.472Z,14.53
2018-12-15T19:14:11.444Z,14.35
2018-12-15T19:15:29.575Z,15.80
2018-12-15T19:16:53.155Z,15.38
2018-12-15T19:18:10.033Z,15.23
2018-12-15T19:19:26.723Z,17.17
2018-12-15T19:20:46.902Z,16.87
2018-12-15T19:22:01.161Z,16.87
2018-12-15T19:23:17.609Z,16.32
2018-12-15T19:24:32.068Z,17.48
2018-12-15T19:25:48.721Z,16.97
2018-12-15T19:27:02.433Z,17.12
2018-12-15T19:28:15.796Z,16.62
2018-12-15T19:29:33.275Z,17.42
2018-12-15T19:30:46.843Z,18.12
2018-12-15T19:32:12.323Z,16.95
2018-12-15T19:33:32.556Z,17.52
2018-12-15T19:34:52.255Z,18.77
2018-12-15T19:36:05.226Z,17.75
2018-12-15T19:37:24.456Z,16.17
2018-12-15T19:38:37.993Z,16.55
2018-12-15T19:39:51.222Z,17.37
2018-12-15T19:41:06.681Z,16.57
2018-12-15T19:42:24.264Z,17.48
2018-12-15T19:43:38.395Z,16.90
2018-12-15T19:45:12.782Z,16.90
2018-12-15T19:46:27.221Z,16.67
2018-12-15T19:47:41.573Z,17.73
2018-12-15T19:48:59.728Z,16.05
2018-12-15T19:50:15.858Z,17.27
2018-12-15T19:53:33.686Z,17.73
2018-12-15T19:55:57.220Z,17.40
2018-12-15T19:57:11.049Z,16.82
2018-12-15T19:58:24.760Z,16.30
2018-12-15T19:59:38.708Z,16.73
2018-12-15T20:01:02.160Z,16.67
2018-12-15T20:02:15.381Z,16.52
2018-12-15T20:03:38.915Z,16.60
2018-12-15T20:04:53.055Z,16.25
2018-12-15T20:06:17.457Z,16.50
2018-12-15T20:07:34.150Z,15.53
2018-12-15T20:08:59.629Z,15.90
2018-12-15T20:10:17.657Z,15.08
2018-12-15T20:11:34.542Z,15.83
2018-12-15T20:12:48.332Z,15.75
2018-12-15T20:14:02.493Z,17.37
2018-12-15T20:15:16.056Z,15.78
2018-12-15T20:16:28.905Z,15.65
2018-12-15T20:17:47.072Z,15.95
2018-12-15T20:19:01.303Z,15.53
2018-12-15T20:20:22.495Z,16.00
2018-12-15T20:21:37.978Z,15.10
2018-12-15T20:22:51.950Z,15.35
2018-12-15T20:24:12.385Z,16.30
2018-12-15T20:25:26.255Z,16.12
2018-12-15T20:26:40.056Z,14.55
2018-12-15T20:27:56.969Z,14.40
2018-12-15T20:29:12.268Z,14.23
2018-12-15T20:30:32.986Z,15.70
2018-12-15T20:31:46.882Z,16.50
2018-12-15T20:33:01.881Z,14.68
2018-12-15T20:34:15.961Z,16.20
2018-12-15T20:35:31.952Z,13.25
2018-12-15T20:36:48.308Z,13.45
2018-12-15T20:38:04.606Z,13.95
2018-12-15T20:39:50.015Z,14.13
2018-12-15T20:41:03.836Z,13.75
2018-12-15T20:42:18.238Z,12.70
2018-12-15T20:43:33.236Z,13.15
2018-12-15T20:44:46.833Z,13.78
2018-12-15T20:46:06.778Z,12.85
2018-12-15T20:47:27.970Z,12.10
2018-12-15T20:48:41.702Z,13.75
2018-12-15T20:49:55.536Z,12.47
2018-12-15T20:51:11.238Z,13.45
2018-12-15T20:52:31.727Z,13.00
2018-12-15T20:53:53.518Z,12.33
2018-12-15T20:55:11.975Z,12.85
2018-12-15T20:59:04.989Z,11.85
2018-12-15T21:00:18.793Z,11.93
2018-12-15T21:01:33.194Z,11.65
2018-12-15T21:02:47.089Z,12.95
2018-12-15T21:04:02.905Z,11.80
2018-12-15T21:05:18.857Z,11.88
2018-12-15T21:06:32.296Z,12.07
2018-12-15T21:07:51.516Z,12.55
2018-12-15T21:09:06.476Z,11.40
2018-12-15T21:10:19.542Z,11.73
2018-12-15T21:11:34.742Z,13.13
2018-12-15T21:12:54.833Z,11.75
2018-12-15T21:14:08.747Z,10.90
2018-12-15T21:15:26.841Z,11.95
2018-12-15T21:16:44.105Z,10.15
2018-12-15T21:31:59.152Z,10.43
2018-12-15T21:33:13.402Z,10.45
2018-12-15T21:34:26.925Z,10.28
2018-12-15T21:35:41.105Z,10.60
2018-12-15T21:38:21.085Z,10.63
2018-12-15T21:39:35.514Z,9.90
2018-12-15T21:40:49.217Z,10.08
2018-12-15T21:42:07.795Z,10.82
2018-12-15T21:43:22.233Z,10.20
2018-12-15T21:44:35.793Z,10.55
2018-12-15T21:45:48.605Z,10.68
2018-12-15T21:47:01.596Z,11.25
2018-12-15T21:48:14.344Z,10.53
2018-12-15T21:49:27.432Z,10.85
2018-12-15T21:50:42.021Z,10.90
2018-12-15T21:51:56.392Z,10.32
2018-12-15T21:53:16.894Z,10.30
2018-12-15T21:54:30.493Z,10.95
2018-12-15T21:55:48.493Z,10.95
2018-12-15T21:57:02.209Z,10.40
2018-12-15T21:58:15.453Z,10.65
2018-12-15T21:59:29.172Z,10.85
2018-12-15T22:00:42.293Z,10.60
2018-12-15T22:01:55.145Z,10.45
2018-12-15T22:03:07.978Z,10.60
2018-12-15T22:04:20.972Z,10.45
2018-12-15T22:05:34.005Z,10.75
2018-12-15T22:06:49.796Z,10.45
2018-12-15T22:08:03.477Z,10.05
2018-12-15T22:09:15.985Z,10.82
2018-12-15T22:10:28.858Z,9.73
2018-12-15T22:11:42.006Z,10.48
2018-12-15T22:12:58.977Z,11.03
2018-12-15T22:14:12.373Z,10.25
2018-12-15T22:15:25.697Z,11.00
2018-12-15T22:16:38.521Z,10.53
2018-12-15T22:17:47.410Z,10.35
2018-12-15T22:19:00.151Z,10.28
2018-12-15T22:20:14.957Z,10.93
2018-12-15T22:21:27.672Z,10.00
2018-12-15T22:22:40.840Z,11.03
2018-12-15T22:23:53.997Z,11.28
2018-12-15T22:25:11.946Z,11.25
2018-12-15T22:26:24.549Z,10.58
2018-12-15T22:27:45.154Z,10.80
2018-12-15T22:28:59.473Z,10.23
2018-12-15T22:30:14.296Z,10.38
2018-12-15T22:31:27.789Z,10.38
2018-12-15T22:32:44.863Z,11.38
2018-12-15T22:33:59.202Z,11.43
2018-12-15T22:35:18.543Z,10.53
2018-12-15T22:36:32.934Z,10.55
2018-12-15T22:37:46.909Z,9.83
2018-12-15T22:39:02.741Z,10.30
2018-12-15T22:40:18.747Z,10.55
2018-12-15T22:41:33.275Z,11.15
2018-12-15T22:42:46.876Z,10.78
2018-12-15T22:44:00.306Z,10.93
2018-12-15T22:45:16.751Z,10.55
2018-12-15T22:46:32.402Z,10.88
2018-12-15T22:47:48.483Z,11.08
2018-12-15T22:49:03.393Z,11.30
2018-12-15T22:50:17.715Z,10.55
2018-12-15T22:51:33.313Z,10.98
2018-12-15T22:52:45.989Z,11.33
2018-12-15T22:53:58.905Z,11.93
2018-12-15T22:55:11.837Z,11.08
2018-12-15T22:56:24.760Z,12.00
2018-12-15T22:57:40.298Z,11.25
2018-12-15T22:58:54.896Z,9.75
2018-12-15T23:00:23.660Z,11.40
2018-12-15T23:01:44.246Z,11.22
2018-12-15T23:03:01.754Z,10.50
2018-12-15T23:04:18.129Z,10.80
2018-12-15T23:05:34.548Z,10.68
2018-12-15T23:06:53.275Z,11.03
2018-12-15T23:08:08.409Z,9.85
2018-12-15T23:09:24.814Z,11.70
2018-12-15T23:10:40.895Z,11.55
2018-12-15T23:12:01.887Z,10.78
2018-12-15T23:13:19.677Z,12.00
2018-12-15T23:14:34.901Z,10.63
2018-12-15T23:15:50.469Z,10.72
2018-12-15T23:17:04.965Z,12.00
2018-12-15T23:18:21.048Z,11.22
2018-12-15T23:19:36.986Z,10.85
2018-12-15T23:20:51.369Z,12.10
2018-12-15T23:22:16.335Z,13.10
2018-12-15T23:23:32.222Z,11.20
2018-12-15T23:24:57.211Z,10.23
2018-12-15T23:26:12.880Z,11.05
2018-12-15T23:27:34.128Z,9.75
2018-12-15T23:28:48.137Z,9.88
2018-12-15T23:30:04.184Z,11.05
2018-12-15T23:31:16.929Z,9.95
2018-12-15T23:32:30.077Z,9.88
2018-12-15T23:33:50.712Z,10.40
2018-12-15T23:35:05.988Z,8.73
2018-12-15T23:36:21.529Z,9.50
2018-12-15T23:37:38.860Z,9.43
2018-12-15T23:38:54.318Z,8.75
2018-12-15T23:40:11.394Z,9.05
2018-12-15T23:41:25.999Z,9.63
2018-12-15T23:42:47.261Z,8.75
2018-12-15T23:44:02.243Z,8.18
2018-12-15T23:45:15.028Z,9.80
2018-12-15T23:46:28.935Z,8.80
2018-12-15T23:47:42.047Z,9.40
2018-12-15T23:48:54.656Z,8.90
2018-12-15T23:50:09.857Z,9.13
2018-12-15T23:51:25.745Z,9.63
2018-12-15T23:52:44.724Z,8.88
2018-12-15T23:54:00.380Z,10.48
2018-12-15T23:55:17.418Z,9.73
2018-12-15T23:56:33.130Z,9.00
2018-12-15T23:57:47.673Z,9.40
2018-12-15T23:59:02.094Z,9.55
